Terminal Aerodrome Forecast
Issued by NWS Lake Charles, LA

Home | Current Version | Previous Version | Text Only | Print | Product List | Glossary On
Versions: 1 2 3 4 5 6 7 8 9 10 11 12 13 14 15 16
000
FTUS44 KLCH 301500 AAB
TAFLFT
TAF AMD
KLFT 301508Z 3015/3112 VRB05KT 5SM SHRA SCT008 BKN014 OVC050
      TEMPO 3015/3018 VRB13G22KT 2SM TSRA FEW008 SCT025CB OVC050
     FM301800 19009KT P6SM VCTS SCT015 BKN025CB
      TEMPO 3018/3022 VRB13G20KT 4SM -TSRA OVC015CB
     FM302200 18007KT P6SM -SHRA OVC025
      TEMPO 3022/3024 3SM -TSRA BKN025CB
     FM310000 18005KT P6SM VCSH OVC025=

USA.gov is the U.S. government's official web portal to all federal, state and local government web resources and services.